Orrville, Ohio
Current Conditions -  °F | °C
As of 11:51 AM on Sunday 23 Nov 2014 (Local Time) from KCAK Reporting Station
Overcast Overcast  
Wind Chill: 55°   Ceiling: 8000
Heat Index: 55°   Visibility: 10mi
Dew Point: 37°   Wind: 7mph
Humidity: 51%   Direction: 160°SSE
Pressure: 29.96"   Gusts: NA
Location:  40.84°N, 81.76°W
Report Text: KCAK 231651Z 16006KT 10SM SCT027 OVC080 13/03 A2996 RMK AO2 SLP149 T01280028 $
Loading
Personal Weather Stations






























Interactive Weather Map New forecast layout! Learn more

10-Day Weather Forecast

Advertisements
Track Severe Weather on mobile